createdAt,value
2018-10-19T00:00:20.791Z,90.23
2018-10-19T00:02:49.258Z,102.70
2018-10-19T00:05:17.901Z,92.10
2018-10-19T00:07:46.287Z,91.00
2018-10-19T00:10:14.811Z,103.00
2018-10-19T00:12:43.300Z,83.17
2018-10-19T00:15:11.987Z,106.17
2018-10-19T00:17:40.455Z,114.97
2018-10-19T00:20:09.480Z,99.93
2018-10-19T00:22:37.948Z,84.43
2018-10-19T00:25:06.961Z,104.57
2018-10-19T00:27:35.462Z,90.83
2018-10-19T00:30:04.156Z,93.80
2018-10-19T00:32:32.620Z,95.50
2018-10-19T00:35:01.193Z,86.33
2018-10-19T00:37:29.650Z,95.03
2018-10-19T00:39:58.151Z,90.20
2018-10-19T00:42:26.590Z,80.83
2018-10-19T00:44:55.207Z,83.70
2018-10-19T00:47:23.709Z,90.40
2018-10-19T00:49:52.229Z,99.83
2018-10-19T00:52:20.818Z,83.63
2018-10-19T00:54:49.273Z,90.63
2018-10-19T00:57:17.774Z,83.60
2018-10-19T00:59:46.275Z,85.13
2018-10-19T01:02:14.766Z,86.97
2018-10-19T01:04:43.233Z,75.57
2018-10-19T01:07:11.724Z,75.53
2018-10-19T01:09:40.223Z,85.23
2018-10-19T01:12:08.733Z,82.63
2018-10-19T01:14:37.199Z,101.57
2018-10-19T01:17:05.782Z,103.20
2018-10-19T01:19:34.304Z,89.67
2018-10-19T01:22:03.118Z,92.13
2018-10-19T01:24:31.705Z,91.47
2018-10-19T01:27:00.306Z,84.33
2018-10-19T01:29:28.768Z,74.77
2018-10-19T01:31:57.296Z,72.63
2018-10-19T01:34:25.791Z,74.73
2018-10-19T01:36:54.277Z,66.47
2018-10-19T01:39:22.751Z,65.33
2018-10-19T01:41:51.243Z,57.83
2018-10-19T01:44:19.679Z,60.87
2018-10-19T01:46:49.569Z,64.80
2018-10-19T01:49:19.296Z,61.20
2018-10-19T01:51:47.819Z,75.13
2018-10-19T01:54:16.314Z,76.27
2018-10-19T01:56:44.793Z,79.03
2018-10-19T01:59:13.314Z,71.60
2018-10-19T02:01:41.751Z,73.53
2018-10-19T02:04:10.226Z,68.17
2018-10-19T02:06:38.718Z,69.27
2018-10-19T02:09:07.796Z,65.77
2018-10-19T02:11:36.390Z,61.47
2018-10-19T02:14:04.998Z,64.00
2018-10-19T02:16:33.497Z,66.53
2018-10-19T02:19:01.934Z,54.10
2018-10-19T02:21:30.428Z,60.63
2018-10-19T02:23:58.887Z,54.77
2018-10-19T02:26:27.402Z,65.47
2018-10-19T02:28:55.850Z,63.37
2018-10-19T02:31:24.361Z,59.53
2018-10-19T02:33:52.856Z,46.57
2018-10-19T02:36:21.450Z,68.27
2018-10-19T02:38:49.986Z,59.93
2018-10-19T02:41:18.486Z,57.90
2018-10-19T02:43:46.937Z,65.63
2018-10-19T02:46:15.449Z,63.93
2018-10-19T02:48:43.933Z,66.93
2018-10-19T02:51:12.515Z,66.03
2018-10-19T02:53:40.886Z,70.87
2018-10-19T02:56:09.378Z,64.17
2018-10-19T02:58:37.827Z,61.57
2018-10-19T03:01:06.336Z,63.20
2018-10-19T03:03:34.808Z,68.80
2018-10-19T03:06:03.858Z,66.93
2018-10-19T03:08:32.395Z,55.00
2018-10-19T03:11:00.964Z,61.77
2018-10-19T03:13:29.321Z,65.03
2018-10-19T03:15:57.821Z,63.60
2018-10-19T03:18:26.295Z,64.13
2018-10-19T03:20:54.814Z,62.77
2018-10-19T03:23:23.265Z,60.73
2018-10-19T03:25:51.791Z,66.40
2018-10-19T03:28:20.251Z,65.37
2018-10-19T03:30:48.794Z,56.83
2018-10-19T03:33:17.247Z,57.67
2018-10-19T03:35:45.791Z,61.27
2018-10-19T03:38:14.240Z,59.87
2018-10-19T03:40:42.743Z,53.37
2018-10-19T03:43:11.226Z,54.43
2018-10-19T03:45:39.720Z,49.27
2018-10-19T03:48:15.889Z,55.73
2018-10-19T03:50:44.531Z,51.00
2018-10-19T03:53:13.175Z,50.73
2018-10-19T03:55:41.610Z,66.83
2018-10-19T03:58:10.149Z,61.03
2018-10-19T04:00:38.808Z,56.97
2018-10-19T04:03:07.504Z,53.03
2018-10-19T04:05:35.966Z,52.43
2018-10-19T04:08:04.447Z,57.73
2018-10-19T04:10:32.926Z,50.87
2018-10-19T04:13:01.454Z,55.93
2018-10-19T04:15:30.088Z,59.67
2018-10-19T04:17:58.607Z,66.70
2018-10-19T04:20:27.488Z,50.57
2018-10-19T04:23:12.345Z,52.90
2018-10-19T04:25:40.902Z,56.00
2018-10-19T04:28:09.355Z,67.13
2018-10-19T04:30:38.196Z,52.87
2018-10-19T04:33:06.912Z,47.50
2018-10-19T04:35:35.445Z,54.73
2018-10-19T04:38:04.082Z,73.87
2018-10-19T04:40:32.595Z,63.67
2018-10-19T04:43:01.934Z,61.27
2018-10-19T04:45:30.506Z,58.00
2018-10-19T04:47:58.944Z,72.47
2018-10-19T04:50:28.179Z,99.47
2018-10-19T04:52:56.821Z,93.00
2018-10-19T04:55:25.287Z,77.13
2018-10-19T04:57:53.717Z,71.10
2018-10-19T05:00:22.460Z,64.37
2018-10-19T05:02:51.671Z,63.57
2018-10-19T05:05:20.358Z,67.03
2018-10-19T05:07:48.766Z,59.00
2018-10-19T05:10:17.320Z,48.63
2018-10-19T05:12:45.843Z,49.63
2018-10-19T05:15:14.268Z,50.13
2018-10-19T05:17:42.727Z,54.50
2018-10-19T05:20:12.376Z,45.23
2018-10-19T05:22:40.747Z,40.83
2018-10-19T05:25:10.970Z,40.77
2018-10-19T05:27:39.418Z,41.67
2018-10-19T05:30:09.795Z,42.90
2018-10-19T05:32:38.642Z,38.33
2018-10-19T05:35:07.616Z,47.40
2018-10-19T05:37:36.736Z,41.47
2018-10-19T05:40:05.960Z,50.40
2018-10-19T05:42:34.406Z,39.73
2018-10-19T05:45:02.894Z,35.50
2018-10-19T05:47:31.343Z,40.43
2018-10-19T05:49:59.847Z,40.33
2018-10-19T05:52:28.294Z,43.67
2018-10-19T05:54:56.812Z,39.87
2018-10-19T05:57:25.260Z,45.60
2018-10-19T05:59:53.757Z,41.93
2018-10-19T06:02:22.364Z,38.13
2018-10-19T06:04:50.648Z,37.17
2018-10-19T06:07:19.159Z,41.20
2018-10-19T06:09:47.612Z,37.37
2018-10-19T06:12:16.090Z,51.33
2018-10-19T06:14:44.566Z,40.77
2018-10-19T06:17:13.128Z,41.23
2018-10-19T06:19:41.526Z,42.77
2018-10-19T06:22:09.970Z,45.60
2018-10-19T06:24:38.482Z,46.13
2018-10-19T06:27:07.074Z,50.70
2018-10-19T06:29:35.919Z,56.77
2018-10-19T06:32:04.402Z,49.17
2018-10-19T06:34:32.883Z,48.80
2018-10-19T06:37:01.351Z,48.47
2018-10-19T06:39:29.806Z,44.10
2018-10-19T06:41:58.279Z,50.53
2018-10-19T06:44:26.746Z,53.97
2018-10-19T06:46:55.313Z,48.27
2018-10-19T06:49:23.766Z,51.77
2018-10-19T06:51:52.257Z,47.97
2018-10-19T06:54:20.744Z,48.47
2018-10-19T06:56:49.195Z,50.77
2018-10-19T06:59:17.683Z,52.77
2018-10-19T07:01:46.143Z,49.90
2018-10-19T07:04:14.590Z,48.10
2018-10-19T07:06:43.056Z,51.47
2018-10-19T07:09:11.499Z,54.33
2018-10-19T07:11:39.970Z,54.47
2018-10-19T07:14:08.504Z,52.70
2018-10-19T07:16:37.046Z,57.03
2018-10-19T07:19:05.997Z,54.67
2018-10-19T07:21:34.430Z,54.83
2018-10-19T07:24:02.894Z,54.47
2018-10-19T07:26:31.389Z,54.33
2018-10-19T07:28:59.917Z,50.70
2018-10-19T07:31:28.316Z,51.70
2018-10-19T07:33:56.761Z,52.00
2018-10-19T07:36:25.304Z,55.97
2018-10-19T07:38:53.755Z,58.90
2018-10-19T07:41:22.259Z,49.90
2018-10-19T07:43:50.686Z,48.70
2018-10-19T07:46:19.186Z,58.60
2018-10-19T07:48:47.642Z,54.47
2018-10-19T07:51:16.107Z,52.73
2018-10-19T07:53:44.572Z,56.03
2018-10-19T07:56:13.166Z,51.97
2018-10-19T07:58:41.547Z,49.43
2018-10-19T08:01:10.130Z,47.77
2018-10-19T08:03:38.503Z,50.83
2018-10-19T08:06:06.980Z,47.03
2018-10-19T08:08:35.434Z,45.10
2018-10-19T08:11:03.993Z,45.17
2018-10-19T08:13:32.419Z,43.97
2018-10-19T08:16:00.882Z,43.60
2018-10-19T08:18:29.345Z,43.00
2018-10-19T08:20:57.830Z,43.10
2018-10-19T08:23:26.292Z,38.53
2018-10-19T08:25:54.806Z,37.63
2018-10-19T08:28:23.614Z,42.77
2018-10-19T08:30:52.135Z,43.43
2018-10-19T08:33:20.600Z,41.23
2018-10-19T08:35:49.113Z,38.97
2018-10-19T08:38:17.570Z,39.57
2018-10-19T08:40:46.055Z,37.23
2018-10-19T08:43:14.577Z,35.03
2018-10-19T08:45:43.093Z,38.03
2018-10-19T08:48:11.545Z,41.63
2018-10-19T08:50:40.015Z,41.30
2018-10-19T08:53:08.511Z,40.67
2018-10-19T08:55:36.973Z,38.63
2018-10-19T08:58:05.618Z,40.87
2018-10-19T09:00:34.053Z,39.63
2018-10-19T09:03:02.872Z,40.40
2018-10-19T09:05:31.342Z,37.77
2018-10-19T09:07:59.794Z,41.47
2018-10-19T09:10:28.270Z,40.63
2018-10-19T09:12:56.881Z,39.03
2018-10-19T09:15:25.364Z,39.00
2018-10-19T09:17:53.836Z,40.17
2018-10-19T09:20:22.359Z,40.87
2018-10-19T09:22:50.819Z,42.70
2018-10-19T09:25:19.346Z,44.27
2018-10-19T09:27:47.803Z,39.03
2018-10-19T09:30:16.294Z,42.23
2018-10-19T09:32:44.774Z,41.33
2018-10-19T09:35:13.646Z,42.67
2018-10-19T09:37:41.981Z,42.37
2018-10-19T09:40:10.511Z,46.20
2018-10-19T09:42:38.936Z,41.80
2018-10-19T09:45:08.148Z,40.53
2018-10-19T09:47:36.590Z,40.17
2018-10-19T09:50:06.148Z,36.90
2018-10-19T09:52:34.585Z,43.13
2018-10-19T09:55:03.193Z,43.63
2018-10-19T09:57:31.594Z,39.33
2018-10-19T10:00:00.081Z,36.50
2018-10-19T10:02:28.572Z,38.90
2018-10-19T10:04:57.179Z,37.37
2018-10-19T10:07:25.615Z,33.83
2018-10-19T10:09:54.122Z,38.80
2018-10-19T10:12:22.567Z,35.03
2018-10-19T10:14:51.147Z,32.80
2018-10-19T10:17:19.531Z,35.73
2018-10-19T10:19:48.047Z,37.20
2018-10-19T10:22:16.623Z,33.80
2018-10-19T10:24:45.102Z,34.10
2018-10-19T10:27:13.523Z,36.17
2018-10-19T10:29:42.107Z,33.37
2018-10-19T10:32:10.640Z,37.10
2018-10-19T10:34:39.180Z,39.10
2018-10-19T10:37:07.750Z,36.90
2018-10-19T10:39:36.286Z,36.03
2018-10-19T10:42:05.117Z,37.17
2018-10-19T10:44:33.849Z,35.30
2018-10-19T10:47:02.406Z,33.23
2018-10-19T10:49:30.932Z,33.23
2018-10-19T10:51:59.413Z,32.90
2018-10-19T10:54:28.051Z,33.33
2018-10-19T10:56:56.494Z,33.33
2018-10-19T10:59:24.964Z,38.63
2018-10-19T11:01:53.508Z,32.17
2018-10-19T11:04:21.986Z,33.40
2018-10-19T11:06:50.486Z,33.07
2018-10-19T11:09:18.938Z,29.47
2018-10-19T11:11:47.425Z,30.63
2018-10-19T11:14:15.907Z,36.23
2018-10-19T11:16:44.412Z,34.13
2018-10-19T11:19:12.907Z,34.83
2018-10-19T11:21:41.456Z,34.60
2018-10-19T11:24:10.106Z,33.80
2018-10-19T11:26:38.541Z,32.67
2018-10-19T11:29:07.047Z,35.00
2018-10-19T11:31:35.569Z,35.40
2018-10-19T11:34:04.209Z,33.50
2018-10-19T11:36:32.654Z,31.13
2018-10-19T11:39:01.114Z,36.40
2018-10-19T11:41:29.638Z,35.37
2018-10-19T11:43:58.106Z,36.77
2018-10-19T11:46:26.622Z,36.93
2018-10-19T11:48:55.198Z,35.07
2018-10-19T11:51:23.654Z,36.93
2018-10-19T11:53:52.119Z,37.03
2018-10-19T11:56:20.617Z,32.73
2018-10-19T11:58:49.109Z,32.60
2018-10-19T12:01:17.777Z,32.20
2018-10-19T12:03:46.328Z,35.30
2018-10-19T12:06:14.727Z,32.03
2018-10-19T12:08:43.187Z,30.93
2018-10-19T12:11:11.670Z,35.27
2018-10-19T12:13:40.119Z,29.93
2018-10-19T12:16:08.688Z,29.70
2018-10-19T12:18:37.073Z,30.10
2018-10-19T12:21:05.757Z,32.83
2018-10-19T12:23:34.289Z,31.30
2018-10-19T12:26:03.201Z,31.73
2018-10-19T12:28:31.691Z,33.57
2018-10-19T12:31:00.239Z,37.47
2018-10-19T12:33:28.717Z,31.60
2018-10-19T12:35:57.190Z,30.93
2018-10-19T12:38:25.659Z,31.97
2018-10-19T12:40:54.172Z,34.83
2018-10-19T12:43:22.607Z,28.57
2018-10-19T12:46:29.457Z,34.27
2018-10-19T12:48:57.928Z,32.77
2018-10-19T12:51:27.699Z,34.70
2018-10-19T12:53:56.219Z,32.73
2018-10-19T12:56:24.723Z,34.37
2018-10-19T12:58:54.059Z,34.17
2018-10-19T13:01:23.608Z,36.33
2018-10-19T13:03:52.115Z,34.70
2018-10-19T13:06:20.731Z,30.93
2018-10-19T13:08:49.215Z,32.50
2018-10-19T13:11:17.671Z,31.07
2018-10-19T13:13:46.152Z,32.97
2018-10-19T13:16:14.706Z,34.30
2018-10-19T13:18:43.156Z,36.13
2018-10-19T13:21:11.987Z,34.20
2018-10-19T13:23:40.600Z,33.83
2018-10-19T13:26:09.269Z,34.93
2018-10-19T13:28:38.078Z,39.47
2018-10-19T13:31:06.792Z,30.57
2018-10-19T13:33:35.489Z,34.20
2018-10-19T13:36:04.326Z,36.10
2018-10-19T13:38:33.061Z,38.80
2018-10-19T13:41:02.428Z,35.93
2018-10-19T13:43:31.088Z,34.13
2018-10-19T13:45:59.654Z,33.23
2018-10-19T13:48:28.085Z,31.57
2018-10-19T13:50:56.769Z,34.87
2018-10-19T13:53:25.184Z,38.63
2018-10-19T13:55:53.609Z,30.90
2018-10-19T13:58:22.127Z,36.00
2018-10-19T14:00:50.597Z,37.80
2018-10-19T14:03:19.207Z,33.97
2018-10-19T14:05:47.763Z,32.50
2018-10-19T14:08:16.267Z,35.33
2018-10-19T14:10:44.727Z,35.07
2018-10-19T14:13:13.221Z,45.60
2018-10-19T14:15:41.682Z,35.40
2018-10-19T14:18:10.169Z,32.83
2018-10-19T14:20:38.626Z,36.40
2018-10-19T14:23:07.149Z,34.33
2018-10-19T14:25:35.599Z,36.77
2018-10-19T14:28:04.125Z,38.10
2018-10-19T14:30:32.584Z,38.90
2018-10-19T14:33:01.219Z,38.23
2018-10-19T14:35:29.615Z,40.43
2018-10-19T14:37:58.159Z,36.53
2018-10-19T14:40:26.626Z,33.13
2018-10-19T14:42:55.185Z,32.80
2018-10-19T14:45:23.733Z,35.13
2018-10-19T14:47:52.224Z,37.30
2018-10-19T14:50:20.671Z,35.50
2018-10-19T14:52:49.132Z,34.10
2018-10-19T14:55:18.668Z,36.77
2018-10-19T14:57:47.125Z,36.17
2018-10-19T15:00:17.069Z,42.43
2018-10-19T15:02:45.635Z,37.00
2018-10-19T15:05:16.969Z,35.27
2018-10-19T15:07:46.027Z,35.07
2018-10-19T15:10:16.768Z,35.13
2018-10-19T15:12:45.314Z,31.23
2018-10-19T15:15:15.918Z,39.50
2018-10-19T15:17:44.690Z,36.97
2018-10-19T15:20:13.710Z,37.40
2018-10-19T15:22:42.251Z,40.40
2018-10-19T15:25:11.403Z,39.00
2018-10-19T15:27:40.799Z,42.20
2018-10-19T15:30:10.701Z,40.97
2018-10-19T15:32:39.129Z,39.13
2018-10-19T15:35:07.881Z,37.50
2018-10-19T15:37:36.371Z,35.70
2018-10-19T15:40:05.184Z,36.03
2018-10-19T15:42:33.800Z,38.20
2018-10-19T15:45:02.480Z,36.20
2018-10-19T15:47:31.771Z,35.77
2018-10-19T15:50:00.252Z,40.37
2018-10-19T15:52:29.074Z,39.53
2018-10-19T15:54:57.651Z,40.30
2018-10-19T15:57:26.225Z,42.30
2018-10-19T15:59:54.748Z,39.57
2018-10-19T16:02:23.246Z,44.83
2018-10-19T16:04:51.721Z,41.53
2018-10-19T16:07:20.229Z,39.53
2018-10-19T16:09:48.822Z,39.93
2018-10-19T16:12:17.346Z,38.70
2018-10-19T16:14:45.797Z,40.80
2018-10-19T16:17:14.291Z,41.87
2018-10-19T16:19:42.932Z,41.37
2018-10-19T16:22:11.454Z,39.80
2018-10-19T16:24:39.908Z,41.50
2018-10-19T16:27:08.460Z,44.20
2018-10-19T16:29:36.895Z,44.67
2018-10-19T16:32:05.982Z,43.73
2018-10-19T16:34:34.468Z,44.33
2018-10-19T16:37:02.945Z,44.87
2018-10-19T16:39:31.397Z,44.80
2018-10-19T16:41:59.919Z,45.30
2018-10-19T16:44:28.423Z,45.00
2018-10-19T16:46:56.979Z,45.70
2018-10-19T16:49:25.537Z,45.00
2018-10-19T16:51:54.667Z,44.90
2018-10-19T16:54:23.161Z,45.43
2018-10-19T16:56:51.701Z,42.03
2018-10-19T16:59:20.319Z,46.43
2018-10-19T17:01:48.772Z,46.97
2018-10-19T17:04:17.411Z,49.00
2018-10-19T17:06:45.891Z,47.03
2018-10-19T17:09:15.675Z,47.60
2018-10-19T17:11:44.154Z,44.83
2018-10-19T17:14:12.807Z,47.23
2018-10-19T17:16:41.286Z,48.07
2018-10-19T17:19:10.056Z,44.63
2018-10-19T17:21:38.553Z,46.77
2018-10-19T17:24:07.155Z,47.80
2018-10-19T17:26:35.799Z,47.80
2018-10-19T17:29:04.952Z,42.47
2018-10-19T17:31:33.541Z,42.97
2018-10-19T17:34:02.146Z,46.07
2018-10-19T17:36:30.700Z,44.57
2018-10-19T17:38:59.199Z,45.93
2018-10-19T17:41:27.668Z,46.63
2018-10-19T17:43:56.142Z,44.83
2018-10-19T17:46:24.657Z,46.00
2018-10-19T17:48:53.191Z,46.10
2018-10-19T17:51:21.695Z,49.90
2018-10-19T17:53:50.211Z,46.00
2018-10-19T17:56:18.656Z,46.87
2018-10-19T17:58:47.102Z,44.70
2018-10-19T18:01:15.590Z,53.57
2018-10-19T18:03:44.043Z,48.40
2018-10-19T18:06:12.590Z,47.27
2018-10-19T18:08:41.057Z,52.63
2018-10-19T18:11:09.672Z,50.03
2018-10-19T18:13:38.144Z,48.93
2018-10-19T18:16:06.973Z,48.63
2018-10-19T18:18:35.438Z,46.60
2018-10-19T18:21:04.089Z,51.03
2018-10-19T18:23:32.674Z,47.70
2018-10-19T18:26:01.381Z,43.00
2018-10-19T18:28:29.864Z,41.77
2018-10-19T18:30:58.469Z,45.57
2018-10-19T18:33:27.042Z,49.30
2018-10-19T18:35:55.585Z,50.03
2018-10-19T18:38:24.718Z,47.10
2018-10-19T18:40:53.427Z,49.60
2018-10-19T18:43:21.930Z,50.10
2018-10-19T18:45:50.407Z,52.53
2018-10-19T18:48:18.847Z,49.13
2018-10-19T18:50:47.386Z,48.57
2018-10-19T18:53:16.074Z,47.13
2018-10-19T18:55:44.640Z,48.90
2018-10-19T18:58:13.158Z,52.13
2018-10-19T19:00:41.745Z,52.97
2018-10-19T19:03:10.521Z,53.53
2018-10-19T19:05:39.047Z,55.60
2018-10-19T19:08:07.569Z,53.90
2018-10-19T19:10:36.022Z,46.47
2018-10-19T19:13:09.852Z,52.40
2018-10-19T19:15:38.422Z,50.53
2018-10-19T19:18:06.894Z,51.70
2018-10-19T19:20:35.493Z,54.40
2018-10-19T19:23:03.998Z,49.13
2018-10-19T19:25:37.590Z,52.40
2018-10-19T19:28:06.095Z,50.17
2018-10-19T19:30:34.839Z,54.07
2018-10-19T19:33:08.698Z,50.67
2018-10-19T19:35:37.200Z,54.93
2018-10-19T19:38:07.605Z,56.80
2018-10-19T19:40:41.526Z,56.23
2018-10-19T19:43:10.103Z,55.23
2018-10-19T19:45:38.638Z,56.13
2018-10-19T19:48:13.101Z,57.80
2018-10-19T19:50:41.610Z,58.07
2018-10-19T19:53:10.133Z,61.93
2018-10-19T19:55:38.678Z,56.37
2018-10-19T19:58:07.193Z,57.57
2018-10-19T20:00:35.693Z,58.20
2018-10-19T20:03:04.278Z,57.07
2018-10-19T20:05:32.825Z,65.87
2018-10-19T20:08:01.304Z,67.17
2018-10-19T20:10:29.831Z,68.40
2018-10-19T20:12:58.352Z,65.03
2018-10-19T20:15:26.895Z,66.67
2018-10-19T20:17:55.353Z,54.53
2018-10-19T20:20:23.887Z,65.37
2018-10-19T20:22:52.376Z,64.13
2018-10-19T20:25:20.899Z,61.37
2018-10-19T20:27:49.385Z,61.83
2018-10-19T20:30:17.868Z,70.70
2018-10-19T20:32:46.317Z,63.27
2018-10-19T20:35:15.023Z,64.43
2018-10-19T20:37:43.514Z,61.07
2018-10-19T20:40:12.018Z,60.63
2018-10-19T20:42:40.491Z,60.27
2018-10-19T20:45:09.088Z,62.83
2018-10-19T20:47:37.551Z,62.73
2018-10-19T20:50:06.194Z,58.23
2018-10-19T20:52:34.576Z,62.70
2018-10-19T20:55:03.095Z,63.93
2018-10-19T20:57:31.562Z,67.77
2018-10-19T21:00:00.080Z,65.30
2018-10-19T21:02:28.598Z,62.73
2018-10-19T21:04:57.217Z,66.20
2018-10-19T21:07:25.741Z,78.90
2018-10-19T21:09:54.198Z,81.43
2018-10-19T21:12:22.678Z,82.80
2018-10-19T21:14:51.204Z,84.93
2018-10-19T21:17:19.686Z,78.17
2018-10-19T21:19:48.251Z,72.47
2018-10-19T21:22:16.756Z,73.70
2018-10-19T21:24:45.293Z,76.30
2018-10-19T21:27:13.781Z,74.47
2018-10-19T21:29:42.316Z,82.30
2018-10-19T21:32:10.832Z,68.27
2018-10-19T21:34:39.297Z,67.60
2018-10-19T21:37:07.787Z,72.97
2018-10-19T21:39:36.314Z,62.93
2018-10-19T21:42:04.876Z,56.63
2018-10-19T21:44:33.378Z,55.17
2018-10-19T21:47:01.909Z,49.73
2018-10-19T21:49:30.468Z,54.10
2018-10-19T21:51:58.983Z,56.53
2018-10-19T21:54:27.506Z,54.03
2018-10-19T21:56:55.976Z,69.23
2018-10-19T21:59:24.462Z,61.00
2018-10-19T22:01:52.929Z,63.10
2018-10-19T22:04:21.619Z,62.53
2018-10-19T22:06:50.109Z,66.00
2018-10-19T22:09:18.594Z,64.60
2018-10-19T22:11:47.097Z,62.30
2018-10-19T22:14:15.606Z,65.70
2018-10-19T22:16:44.069Z,62.70
2018-10-19T22:19:12.644Z,65.67
2018-10-19T22:21:41.521Z,66.83
2018-10-19T22:24:10.643Z,72.90
2018-10-19T22:26:39.511Z,73.03
2018-10-19T22:29:08.112Z,76.53
2018-10-19T22:31:36.621Z,73.93
2018-10-19T22:34:05.199Z,72.93
2018-10-19T22:36:33.662Z,68.23
2018-10-19T22:39:02.143Z,64.47
2018-10-19T22:41:30.630Z,66.23
2018-10-19T22:43:59.068Z,61.33
2018-10-19T22:46:27.567Z,74.87
2018-10-19T22:48:56.019Z,71.13
2018-10-19T22:51:24.539Z,77.90
2018-10-19T22:53:53.029Z,74.03
2018-10-19T22:56:21.524Z,70.03
2018-10-19T22:58:49.971Z,78.40
2018-10-19T23:01:18.493Z,71.37
2018-10-19T23:03:47.051Z,71.57
2018-10-19T23:06:15.576Z,61.90
2018-10-19T23:08:44.105Z,78.53
2018-10-19T23:11:12.656Z,85.23
2018-10-19T23:13:41.120Z,102.67
2018-10-19T23:16:09.652Z,97.17
2018-10-19T23:18:38.099Z,97.30
2018-10-19T23:21:07.021Z,99.13
2018-10-19T23:23:35.521Z,95.07
2018-10-19T23:26:04.012Z,92.33
2018-10-19T23:28:32.510Z,89.17
2018-10-19T23:31:00.981Z,86.30
2018-10-19T23:33:29.478Z,92.87
2018-10-19T23:35:57.934Z,94.70
2018-10-19T23:38:26.446Z,88.33
2018-10-19T23:40:54.936Z,93.93
2018-10-19T23:43:23.407Z,90.67
2018-10-19T23:45:51.842Z,87.73
2018-10-19T23:48:20.358Z,77.60
2018-10-19T23:50:48.790Z,83.50
2018-10-19T23:53:17.297Z,79.20
2018-10-19T23:55:45.843Z,93.87
2018-10-19T23:58:14.353Z,86.77
